Date,TemperatureHighF,TemperatureAvgF,TemperatureLowF,DewpointHighF,DewpointAvgF,DewpointLowF,HumidityHigh,HumidityAvg,HumidityLow,PressureMaxIn,PressureMinIn,WindSpeedMaxMPH,WindSpeedAvgMPH,GustSpeedMaxMPH,PrecipitationSumIn
2013-2-1,53,40,32,-100,-100,-100,0,0,100,0.00,40.00,0,-999,0,0.00
2013-2-2,49,35,21,-100,-100,-100,0,0,100,0.00,40.00,0,-999,0,0.00
2013-2-3,47,32,24,-100,-100,-100,0,0,100,0.00,40.00,0,-999,0,0.00
2013-2-4,54,35,20,-100,-100,-100,0,0,100,0.00,40.00,0,-999,0,0.00
2013-2-5,60,35,21,-100,-100,-100,0,0,100,0.00,40.00,0,-999,0,0.00
2013-2-6,54,36,25,-100,-100,-100,0,0,100,0.00,40.00,0,-999,0,0.00
2013-2-7,44,35,25,-100,-100,-100,0,0,100,0.00,40.00,0,-999,0,0.00
2013-2-8,49,34,22,-100,-100,-100,0,0,100,0.00,40.00,0,-999,0,0.00
2013-2-9,47,38,29,-100,-100,-100,0,0,100,0.00,40.00,0,-999,0,0.00
2013-2-10,50,31,22,-100,-100,-100,0,0,100,0.00,40.00,0,-999,0,0.00
2013-2-11,38,30,21,-100,-100,-100,0,0,100,0.00,40.00,0,-999,0,0.00
2013-2-12,40,25,14,-100,-100,-100,0,0,100,0.00,40.00,0,-999,0,0.00
2013-2-13,47,35,28,-100,-100,-100,0,0,100,0.00,40.00,0,-999,0,0.00
2013-2-14,45,37,33,-100,-100,-100,0,0,100,0.00,40.00,0,-999,0,0.00
2013-2-15,44,36,28,-100,-100,-100,0,0,100,0.00,40.00,0,-999,0,0.00
2013-2-16,54,32,18,-100,-100,-100,0,0,100,0.00,40.00,0,-999,0,0.00
2013-2-17,53,37,23,-100,-100,-100,0,0,100,0.00,40.00,0,-999,0,0.00
2013-2-18,46,35,22,-100,-100,-100,0,0,100,0.00,40.00,0,-999,0,0.00
2013-2-19,50,32,16,-100,-100,-100,0,0,100,0.00,40.00,0,-999,0,0.00
2013-2-20,53,37,25,-100,-100,-100,0,0,100,0.00,40.00,0,-999,0,0.00
2013-2-21,44,36,28,-100,-100,-100,0,0,100,0.00,40.00,0,-999,0,0.00
2013-2-22,43,32,26,-100,-100,-100,0,0,100,0.00,40.00,0,-999,0,0.00
2013-2-23,42,28,18,-100,-100,-100,0,0,100,0.00,40.00,0,-999,0,0.00
2013-2-24,38,31,23,-100,-100,-100,0,0,100,0.00,40.00,0,-999,0,0.00
2013-2-25,46,28,14,-100,-100,-100,0,0,100,0.00,40.00,0,-999,0,0.00
2013-2-26,40,31,25,-100,-100,-100,0,0,100,0.00,40.00,0,-999,0,0.00
2013-2-27,47,26,13,-100,-100,-100,0,0,100,0.00,40.00,0,-999,0,0.00
2013-2-28,46,29,14,-100,-100,-100,0,0,100,0.00,40.00,0,-999,0,0.00